createdAt,value
2023-03-27T00:00:04.640Z,318.05
2023-03-27T00:01:04.353Z,320.22
2023-03-27T00:02:04.383Z,318.05
2023-03-27T00:03:04.469Z,321.79
2023-03-27T00:04:04.393Z,322.42
2023-03-27T00:05:04.581Z,322.11
2023-03-27T00:06:04.376Z,324.02
2023-03-27T00:07:04.548Z,323.70
2023-03-27T00:08:04.554Z,324.66
2023-03-27T00:09:04.501Z,324.98
2023-03-27T00:10:05.252Z,328.23
2023-03-27T00:11:04.499Z,328.89
2023-03-27T00:12:04.376Z,327.90
2023-03-27T00:13:04.376Z,329.88
2023-03-27T00:14:04.452Z,331.88
2023-03-27T00:15:04.438Z,330.55
2023-03-27T00:16:05.090Z,333.23
2023-03-27T00:17:04.413Z,334.59
2023-03-27T00:18:04.477Z,337.34
2023-03-27T00:19:04.372Z,338.04
2023-03-27T00:20:03.677Z,338.04
2023-03-27T00:21:03.644Z,338.73
2023-03-27T00:22:03.650Z,337.69
2023-03-27T00:23:04.346Z,339.79
2023-03-27T00:24:04.299Z,344.79
2023-03-27T00:25:03.643Z,344.06
2023-03-27T00:26:04.326Z,346.97
2023-03-27T00:27:04.277Z,348.82
2023-03-27T00:28:04.315Z,348.08
2023-03-27T00:29:04.252Z,349.19
2023-03-27T00:30:03.652Z,350.68
2023-03-27T00:31:04.253Z,351.81
2023-03-27T00:32:04.227Z,356.01
2023-03-27T00:33:04.284Z,356.40
2023-03-27T00:34:04.156Z,363.10
2023-03-27T00:35:04.186Z,367.16
2023-03-27T00:36:04.227Z,372.58
2023-03-27T00:37:04.142Z,374.28
2023-03-27T00:38:04.142Z,382.36
2023-03-27T00:39:04.100Z,387.69
2023-03-27T00:40:04.106Z,393.64
2023-03-27T00:41:04.120Z,397.87
2023-03-27T00:42:04.080Z,398.11
2023-03-27T00:43:04.059Z,405.12
2023-03-27T00:44:04.064Z,409.35
2023-03-27T00:45:04.787Z,415.73
2023-03-27T00:46:04.069Z,415.99
2023-03-27T00:47:04.025Z,418.86
2023-03-27T00:48:04.035Z,423.12
2023-03-27T00:49:03.982Z,428.28
2023-03-27T00:50:03.968Z,429.11
2023-03-27T00:51:04.642Z,433.57
2023-03-27T00:52:04.620Z,436.70
2023-03-27T00:53:03.931Z,446.34
2023-03-27T00:54:03.183Z,448.74
2023-03-27T00:55:03.890Z,452.09
2023-03-27T00:56:04.574Z,457.05
2023-03-27T00:57:03.230Z,458.93
2023-03-27T00:58:03.859Z,459.89
2023-03-27T00:59:03.850Z,460.84
2023-03-27T01:00:03.232Z,465.67
2023-03-27T01:01:03.853Z,469.60
2023-03-27T01:02:03.418Z,471.59
2023-03-27T01:03:03.953Z,472.93
2023-03-27T01:04:03.797Z,475.63
2023-03-27T01:05:03.425Z,482.86
2023-03-27T01:06:03.761Z,480.43
2023-03-27T01:07:03.754Z,483.56
2023-03-27T01:08:03.407Z,492.49
2023-03-27T01:09:03.704Z,486.74
2023-03-27T01:10:03.137Z,494.68
2023-03-27T01:11:03.685Z,498.75
2023-03-27T01:12:03.715Z,504.41
2023-03-27T01:13:03.227Z,507.87
2023-03-27T01:14:03.690Z,512.95
2023-03-27T01:15:04.322Z,516.53
2023-03-27T01:16:03.348Z,522.19
2023-03-27T01:17:03.604Z,525.48
2023-03-27T01:18:03.442Z,530.50
2023-03-27T01:19:03.587Z,536.04
2023-03-27T01:20:04.309Z,535.18
2023-03-27T01:21:03.429Z,543.91
2023-03-27T01:22:03.549Z,548.83
2023-03-27T01:23:04.223Z,555.23
2023-03-27T01:24:03.437Z,556.62
2023-03-27T01:25:03.489Z,562.25
2023-03-27T01:26:03.444Z,567.52
2023-03-27T01:27:04.172Z,572.88
2023-03-27T01:28:03.466Z,576.35
2023-03-27T01:29:02.712Z,579.85
2023-03-27T01:30:04.162Z,583.41
2023-03-27T01:31:04.157Z,588.55
2023-03-27T01:32:03.423Z,594.33
2023-03-27T01:33:04.156Z,600.21
2023-03-27T01:34:04.123Z,604.02
2023-03-27T01:35:03.724Z,611.77
2023-03-27T01:36:04.096Z,613.46
2023-03-27T01:37:04.069Z,619.16
2023-03-27T01:38:04.054Z,619.73
2023-03-27T01:39:04.042Z,623.21
2023-03-27T01:40:04.035Z,627.90
2023-03-27T01:41:04.000Z,634.47
2023-03-27T01:42:03.268Z,638.73
2023-03-27T01:43:03.993Z,647.41
2023-03-27T01:44:03.970Z,651.20
2023-03-27T01:45:03.236Z,653.76
2023-03-27T01:46:03.940Z,656.98
2023-03-27T01:47:03.241Z,664.84
2023-03-27T01:48:02.523Z,664.84
2023-03-27T01:49:03.190Z,671.53
2023-03-27T01:50:03.142Z,679.75
2023-03-27T01:51:03.830Z,687.46
2023-03-27T01:52:03.136Z,688.88
2023-03-27T01:53:02.395Z,687.46
2023-03-27T01:54:03.114Z,693.90
2023-03-27T01:55:03.814Z,693.90
2023-03-27T01:56:03.075Z,692.45
2023-03-27T01:57:03.124Z,696.07
2023-03-27T01:58:03.738Z,704.15
2023-03-27T01:59:03.041Z,710.15
2023-03-27T02:00:17.930Z,713.19
2023-03-27T02:01:05.001Z,720.12
2023-03-27T02:02:03.020Z,728.78
2023-03-27T02:03:03.027Z,734.40
2023-03-27T02:04:02.972Z,737.65
2023-03-27T02:05:02.995Z,738.46
2023-03-27T02:06:02.924Z,744.23
2023-03-27T02:07:02.927Z,745.07
2023-03-27T02:08:02.924Z,748.74
2023-03-27T02:09:02.471Z,758.09
2023-03-27T02:10:03.572Z,760.25
2023-03-27T02:11:02.858Z,774.81
2023-03-27T02:12:02.873Z,776.61
2023-03-27T02:13:02.879Z,781.16
2023-03-27T02:14:02.844Z,791.82
2023-03-27T02:15:23.848Z,789.47
2023-03-27T02:16:03.859Z,800.36
2023-03-27T02:17:02.802Z,802.77
2023-03-27T02:18:02.823Z,808.11
2023-03-27T02:19:02.778Z,811.55
2023-03-27T02:23:32.600Z,0.00
2023-03-27T02:24:31.398Z,794.64
2023-03-27T02:25:31.153Z,798.45
2023-03-27T02:26:32.068Z,821.03
2023-03-27T02:27:31.357Z,822.55
2023-03-27T02:28:32.062Z,830.74
2023-03-27T02:29:31.368Z,842.27
2023-03-27T02:30:32.049Z,845.47
2023-03-27T02:31:33.996Z,843.34
2023-03-27T02:32:32.059Z,844.94
2023-03-27T02:33:31.321Z,853.58
2023-03-27T02:34:32.012Z,855.77
2023-03-27T02:35:31.269Z,868.01
2023-03-27T02:36:31.218Z,873.12
2023-03-27T02:37:32.266Z,876.56
2023-03-27T02:38:31.209Z,879.45
2023-03-27T02:39:31.198Z,887.04
2023-03-27T02:40:31.198Z,908.16
2023-03-27T02:41:31.151Z,906.93
2023-03-27T02:42:31.162Z,910.64
2023-03-27T02:43:31.169Z,918.79
2023-03-27T02:44:31.804Z,925.80
2023-03-27T02:45:31.141Z,931.61
2023-03-27T02:46:31.080Z,941.47
2023-03-27T02:47:31.143Z,949.50
2023-03-27T02:48:30.495Z,963.20
2023-03-27T02:49:31.060Z,959.05
2023-03-27T02:50:31.055Z,969.50
2023-03-27T02:51:31.009Z,964.59
2023-03-27T02:52:31.256Z,970.91
2023-03-27T02:53:31.689Z,978.02
2023-03-27T02:54:31.006Z,983.79
2023-03-27T02:55:30.981Z,990.36
2023-03-27T02:56:30.514Z,994.04
2023-03-27T02:57:30.963Z,1009.83
2023-03-27T02:58:30.985Z,1010.60
2023-03-27T02:59:31.587Z,1019.08
2023-03-27T03:00:30.929Z,1023.77
2023-03-27T03:01:30.910Z,1026.92
2023-03-27T03:02:30.962Z,1033.28
2023-03-27T03:03:30.923Z,1043.78
2023-03-27T03:04:30.422Z,1046.24
2023-03-27T03:05:30.853Z,1039.72
2023-03-27T03:06:30.833Z,1044.60
2023-03-27T03:07:30.823Z,1046.24
2023-03-27T03:08:30.707Z,1047.06
2023-03-27T03:09:31.544Z,1048.70
2023-03-27T03:10:30.785Z,1062.05
2023-03-27T03:11:31.453Z,1062.90
2023-03-27T03:12:30.526Z,1071.43
2023-03-27T03:13:31.424Z,1077.48
2023-03-27T03:14:30.733Z,1081.85
2023-03-27T03:15:30.189Z,1085.37
2023-03-27T03:16:31.422Z,1086.25
2023-03-27T03:17:30.714Z,1096.06
2023-03-27T03:18:30.674Z,1100.58
2023-03-27T03:19:30.663Z,1106.96
2023-03-27T03:20:30.531Z,1113.43
2023-03-27T03:21:31.332Z,1122.79
2023-03-27T03:22:30.624Z,1120.91
2023-03-27T03:23:30.610Z,1125.63
2023-03-27T03:24:30.600Z,1130.40
2023-03-27T03:25:30.583Z,1127.53
2023-03-27T03:26:30.566Z,1133.28
2023-03-27T03:27:30.553Z,1159.86
2023-03-27T03:28:29.811Z,1158.85
2023-03-27T03:29:30.537Z,1171.05
2023-03-27T03:30:30.560Z,1182.46
2023-03-27T03:31:29.805Z,1191.96
2023-03-27T03:32:30.616Z,1203.79
2023-03-27T03:33:30.472Z,1207.05
2023-03-27T03:34:30.490Z,1224.77
2023-03-27T03:35:30.494Z,1228.15
2023-03-27T03:36:30.433Z,1244.18
2023-03-27T03:37:31.162Z,1248.83
2023-03-27T03:38:30.415Z,1230.42
2023-03-27T03:39:31.166Z,1237.26
2023-03-27T03:40:30.382Z,1247.66
2023-03-27T03:41:30.372Z,1266.60
2023-03-27T03:42:30.594Z,1267.81
2023-03-27T03:43:30.385Z,1271.43
2023-03-27T03:44:30.346Z,1272.64
2023-03-27T03:45:30.315Z,1264.20
2023-03-27T03:46:30.332Z,1284.89
2023-03-27T03:47:30.284Z,1299.90
2023-03-27T03:48:30.493Z,1298.64
2023-03-27T03:49:30.266Z,1301.17
2023-03-27T03:50:30.265Z,1296.12
2023-03-27T03:51:30.233Z,1297.38
2023-03-27T03:52:30.207Z,1312.68
2023-03-27T03:53:30.222Z,1294.86
2023-03-27T03:54:30.192Z,1308.82
2023-03-27T03:55:30.171Z,1312.68
2023-03-27T03:56:30.187Z,1317.87
2023-03-27T03:57:30.116Z,1315.27
2023-03-27T03:58:34.676Z,1311.40
2023-03-27T03:59:31.132Z,1306.26
2023-03-27T04:00:30.118Z,1296.12
2023-03-27T04:01:30.126Z,1293.60
2023-03-27T04:02:30.205Z,1302.44
2023-03-27T04:03:30.134Z,1304.98
2023-03-27T04:04:30.090Z,1304.98
2023-03-27T04:05:30.044Z,1316.57
2023-03-27T04:06:30.044Z,1307.54
2023-03-27T04:07:29.985Z,1306.26
2023-03-27T04:08:29.997Z,1315.27
2023-03-27T04:09:30.652Z,1313.98
2023-03-27T04:10:29.965Z,1310.11
2023-03-27T04:11:30.632Z,1315.27
2023-03-27T04:12:29.915Z,1311.40
2023-03-27T04:13:29.952Z,1308.82
2023-03-27T04:14:29.906Z,1308.82
2023-03-27T04:15:29.897Z,1299.90
2023-03-27T04:16:30.704Z,1302.44
2023-03-27T04:17:29.926Z,1311.40
2023-03-27T04:18:29.898Z,1307.54
2023-03-27T04:19:29.854Z,1301.17
2023-03-27T04:20:29.833Z,1315.27
2023-03-27T04:21:29.856Z,1311.40
2023-03-27T04:22:29.590Z,1310.11
2023-03-27T04:23:29.570Z,1289.85
2023-03-27T04:24:29.773Z,1293.60
2023-03-27T04:25:29.781Z,1277.51
2023-03-27T04:26:29.936Z,1286.13
2023-03-27T04:27:29.776Z,1277.51
2023-03-27T04:28:29.590Z,1287.37
2023-03-27T04:29:29.706Z,1286.13
2023-03-27T04:30:29.696Z,1275.07
2023-03-27T04:31:29.709Z,1276.29
2023-03-27T04:32:29.683Z,1287.37
2023-03-27T04:33:30.596Z,1282.42
2023-03-27T04:34:29.666Z,1273.85
2023-03-27T04:35:29.141Z,1276.29
2023-03-27T04:36:31.217Z,1278.74
2023-03-27T04:37:29.601Z,1294.86
2023-03-27T04:38:29.818Z,1284.89
2023-03-27T04:39:29.625Z,1273.85
2023-03-27T04:40:29.592Z,1272.64
2023-03-27T04:41:30.228Z,1272.64
2023-03-27T04:42:29.311Z,1265.40
2023-03-27T04:43:29.527Z,1265.40
2023-03-27T04:44:30.193Z,1252.34
2023-03-27T04:45:29.500Z,1259.43
2023-03-27T04:46:29.531Z,1247.66
2023-03-27T04:47:29.509Z,1257.06
2023-03-27T04:48:29.432Z,1247.66
2023-03-27T04:49:29.455Z,1254.70
2023-03-27T04:50:29.432Z,1251.17
2023-03-27T04:51:29.424Z,1260.62
2023-03-27T04:52:30.126Z,1261.81
2023-03-27T04:53:30.214Z,1258.25
2023-03-27T04:54:30.105Z,1260.62
2023-03-27T04:55:29.377Z,1254.70
2023-03-27T04:56:29.352Z,1272.64
2023-03-27T04:57:29.348Z,1260.62
2023-03-27T04:58:29.388Z,1260.62
2023-03-27T04:59:29.357Z,1265.40
2023-03-27T05:00:29.976Z,1260.62
2023-03-27T05:01:29.363Z,1263.01
2023-03-27T05:02:29.322Z,1266.60
2023-03-27T05:03:29.308Z,1273.85
2023-03-27T05:04:29.260Z,1261.81
2023-03-27T05:05:29.242Z,1253.52
2023-03-27T05:06:29.218Z,1263.01
2023-03-27T05:07:29.222Z,1245.34
2023-03-27T05:08:29.176Z,1238.40
2023-03-27T05:09:29.189Z,1231.55
2023-03-27T05:10:29.183Z,1228.15
2023-03-27T05:11:29.366Z,1210.33
2023-03-27T05:12:29.176Z,1211.43
2023-03-27T05:13:29.118Z,1194.10
2023-03-27T05:14:29.108Z,1183.51
2023-03-27T05:15:29.089Z,1174.14
2023-03-27T05:16:29.178Z,1167.98
2023-03-27T05:17:29.097Z,1161.88
2023-03-27T05:18:29.028Z,1160.87
2023-03-27T05:19:29.072Z,1163.91
2023-03-27T05:20:29.038Z,1152.85
2023-03-27T05:21:29.016Z,1157.85
2023-03-27T05:22:29.257Z,1151.85
2023-03-27T05:23:28.971Z,1148.88
2023-03-27T05:24:28.971Z,1153.85
2023-03-27T05:25:28.989Z,1146.91
2023-03-27T05:26:29.628Z,1132.32
2023-03-27T05:27:28.926Z,1123.74
2023-03-27T05:28:28.897Z,1119.97
2023-03-27T05:29:28.939Z,1115.29
2023-03-27T05:30:28.958Z,1113.43
2023-03-27T05:31:28.901Z,1113.43
2023-03-27T05:32:28.671Z,1110.65
2023-03-27T05:33:28.821Z,1098.77
2023-03-27T05:34:28.658Z,1088.02
2023-03-27T05:35:28.874Z,1076.61
2023-03-27T05:36:28.808Z,1070.57
2023-03-27T05:37:28.814Z,1068.00
2023-03-27T05:38:28.756Z,1067.15
2023-03-27T05:39:28.643Z,1063.74
2023-03-27T05:40:28.653Z,1062.05
2023-03-27T05:41:28.740Z,1068.00
2023-03-27T05:42:28.738Z,1049.53
2023-03-27T05:43:28.701Z,1045.42
2023-03-27T05:44:28.932Z,1043.78
2023-03-27T05:45:28.732Z,1061.21
2023-03-27T05:46:28.744Z,1048.70
2023-03-27T05:47:28.683Z,1052.84
2023-03-27T05:48:27.929Z,1049.53
2023-03-27T05:49:28.644Z,1039.72
2023-03-27T05:50:28.634Z,1036.49
2023-03-27T05:51:28.609Z,1032.48
2023-03-27T05:52:28.932Z,1026.92
2023-03-27T05:53:29.263Z,1019.86
2023-03-27T05:54:28.571Z,1009.83
2023-03-27T05:55:28.731Z,1013.67
2023-03-27T05:56:27.914Z,1010.60
2023-03-27T05:57:28.552Z,1006.79
2023-03-27T05:58:28.521Z,1003.76
2023-03-27T05:59:28.479Z,1001.50
2023-03-27T06:00:28.621Z,995.53
2023-03-27T06:01:28.471Z,989.62
2023-03-27T06:02:28.506Z,973.03
2023-03-27T06:03:28.583Z,973.03
2023-03-27T06:04:28.530Z,964.59
2023-03-27T06:05:28.419Z,973.03
2023-03-27T06:06:29.151Z,977.31
2023-03-27T06:07:28.389Z,970.91
2023-03-27T06:08:28.378Z,973.74
2023-03-27T06:09:28.354Z,974.45
2023-03-27T06:10:28.359Z,978.74
2023-03-27T06:11:28.352Z,971.62
2023-03-27T06:12:28.337Z,978.74
2023-03-27T06:13:28.314Z,983.06
2023-03-27T06:14:28.282Z,986.70
2023-03-27T06:15:28.417Z,974.45
2023-03-27T06:16:28.335Z,975.16
2023-03-27T06:17:29.025Z,983.79
2023-03-27T06:18:28.283Z,973.03
2023-03-27T06:19:28.215Z,970.20
2023-03-27T06:20:28.229Z,975.88
2023-03-27T06:21:28.237Z,962.51
2023-03-27T06:22:28.245Z,956.99
2023-03-27T06:23:28.861Z,959.05
2023-03-27T06:24:28.174Z,954.25
2023-03-27T06:25:28.842Z,955.62
2023-03-27T06:26:28.840Z,955.62
2023-03-27T06:27:28.148Z,960.43
2023-03-27T06:28:28.165Z,954.94
2023-03-27T06:29:28.083Z,956.99
2023-03-27T06:30:28.107Z,954.94
2023-03-27T06:31:28.124Z,950.85
2023-03-27T06:32:28.099Z,950.18
2023-03-27T06:33:28.063Z,949.50
2023-03-27T06:34:28.017Z,955.62
2023-03-27T06:35:28.020Z,960.43
2023-03-27T06:36:27.744Z,970.91
2023-03-27T06:37:28.005Z,961.12
2023-03-27T06:38:27.991Z,967.39
2023-03-27T06:39:28.710Z,965.29
2023-03-27T06:40:28.224Z,968.09
2023-03-27T06:41:27.954Z,961.12
2023-03-27T06:42:27.936Z,949.50
2023-03-27T06:43:27.682Z,960.43
2023-03-27T06:44:27.687Z,960.43
2023-03-27T06:45:27.708Z,966.69
2023-03-27T06:46:42.786Z,959.05
2023-03-27T06:47:28.911Z,963.20
2023-03-27T06:48:27.890Z,961.82
2023-03-27T06:49:27.823Z,955.62
2023-03-27T06:50:27.849Z,963.20
2023-03-27T06:51:27.291Z,970.20
2023-03-27T06:52:27.347Z,973.74
2023-03-27T06:53:28.834Z,967.39
2023-03-27T06:54:27.756Z,971.62
2023-03-27T06:55:27.088Z,976.59
2023-03-27T06:56:28.424Z,978.02
2023-03-27T06:57:27.739Z,974.45
2023-03-27T06:58:27.582Z,972.32
2023-03-27T06:59:27.173Z,965.99
2023-03-27T07:00:27.755Z,973.03
2023-03-27T07:01:27.640Z,973.74
2023-03-27T07:02:27.693Z,959.05
2023-03-27T07:03:27.673Z,957.68
2023-03-27T07:04:28.374Z,952.89
2023-03-27T07:05:28.350Z,948.83
2023-03-27T07:06:27.837Z,955.62
2023-03-27T07:07:27.585Z,945.47
2023-03-27T07:08:28.311Z,944.13
2023-03-27T07:09:28.306Z,950.85
2023-03-27T07:10:28.285Z,948.15
2023-03-27T07:11:30.646Z,950.18
2023-03-27T07:12:28.275Z,948.83
2023-03-27T07:13:28.231Z,948.83
2023-03-27T07:14:28.239Z,950.18
2023-03-27T07:15:28.204Z,955.62
2023-03-27T07:16:27.652Z,963.90
2023-03-27T07:17:34.885Z,959.05
2023-03-27T07:18:28.461Z,960.43
2023-03-27T07:19:27.413Z,955.62
2023-03-27T07:20:27.470Z,956.30
2023-03-27T07:21:27.400Z,960.43
2023-03-27T07:22:27.395Z,959.05
2023-03-27T07:23:27.370Z,961.12
2023-03-27T07:24:27.357Z,952.89
2023-03-27T07:25:27.322Z,953.57
2023-03-27T07:26:27.344Z,954.94
2023-03-27T07:27:27.316Z,956.30
2023-03-27T07:28:27.354Z,961.12
2023-03-27T07:29:27.306Z,974.45
2023-03-27T07:30:27.244Z,994.04
2023-03-27T07:31:40.328Z,1000.00
2023-03-27T07:32:36.680Z,984.51
2023-03-27T07:33:28.333Z,997.76
2023-03-27T07:34:27.212Z,995.53
2023-03-27T07:35:27.207Z,1014.44
2023-03-27T07:36:27.878Z,1016.76
2023-03-27T07:37:27.193Z,1022.99
2023-03-27T07:38:27.171Z,1032.48
2023-03-27T07:39:27.173Z,1050.35
2023-03-27T07:40:38.838Z,1059.52
2023-03-27T07:41:28.130Z,1074.01
2023-03-27T07:42:27.108Z,1094.26
2023-03-27T07:43:27.109Z,1101.48
2023-03-27T07:44:27.129Z,1118.09
2023-03-27T07:45:27.073Z,1132.32
2023-03-27T07:46:27.078Z,1138.11
2023-03-27T07:47:27.075Z,1110.65
2023-03-27T07:48:27.032Z,1147.89
2023-03-27T07:49:39.287Z,1128.49
2023-03-27T07:50:28.696Z,1126.58
2023-03-27T07:51:26.988Z,1130.40
2023-03-27T07:52:26.762Z,1119.97
2023-03-27T07:53:33.345Z,1128.49
2023-03-27T07:54:27.950Z,1130.40
2023-03-27T07:55:26.939Z,1131.36
2023-03-27T07:56:26.931Z,1133.28
2023-03-27T07:57:27.010Z,1130.40
2023-03-27T07:58:27.131Z,1145.92
2023-03-27T07:59:26.331Z,1142.98
2023-03-27T08:00:27.554Z,1156.85
2023-03-27T08:01:26.853Z,1172.08
2023-03-27T08:02:26.749Z,1182.46
2023-03-27T08:03:26.840Z,1188.78
2023-03-27T08:04:26.874Z,1207.05
2023-03-27T08:05:26.772Z,1216.95
2023-03-27T08:06:26.822Z,1238.40
2023-03-27T08:07:26.034Z,1271.43
2023-03-27T08:08:26.759Z,1291.10
2023-03-27T08:09:26.783Z,1292.35
2023-03-27T08:10:26.718Z,1313.98
2023-03-27T08:11:30.582Z,1313.98
2023-03-27T08:12:27.622Z,1331.01
2023-03-27T08:13:26.694Z,1323.09
2023-03-27T08:14:26.672Z,1328.36
2023-03-27T08:15:26.645Z,1340.36
2023-03-27T08:16:26.675Z,1343.06
2023-03-27T08:17:27.504Z,1343.06
2023-03-27T08:18:26.646Z,1348.48
2023-03-27T08:19:26.017Z,1365.03
2023-03-27T08:20:26.558Z,1365.03
2023-03-27T08:21:26.584Z,1379.13
2023-03-27T08:22:27.252Z,1367.83
2023-03-27T08:23:26.548Z,1366.43
2023-03-27T08:24:26.534Z,1397.91
2023-03-27T08:25:27.209Z,1389.18
2023-03-27T08:26:26.550Z,1426.28
2023-03-27T08:27:25.753Z,1440.13
2023-03-27T08:28:26.476Z,1452.67
2023-03-27T08:29:26.461Z,1467.03
2023-03-27T08:30:26.440Z,1462.21
2023-03-27T08:31:26.501Z,1473.51
2023-03-27T08:32:26.442Z,1488.29
2023-03-27T08:33:26.416Z,1500.00
2023-03-27T08:34:26.394Z,1505.07
2023-03-27T08:35:25.716Z,1496.64
2023-03-27T08:36:26.371Z,1497.48
2023-03-27T08:37:26.365Z,1505.07
2023-03-27T08:38:27.134Z,1506.77
2023-03-27T08:39:26.315Z,1515.32
2023-03-27T08:40:26.412Z,1496.64
2023-03-27T08:41:26.302Z,1496.64
2023-03-27T08:42:26.276Z,1513.60
2023-03-27T08:43:25.543Z,1501.69
2023-03-27T08:44:26.251Z,1503.38
2023-03-27T08:45:26.940Z,1501.69
2023-03-27T08:46:26.323Z,1513.60
2023-03-27T08:47:26.236Z,1514.46
2023-03-27T08:48:26.195Z,1511.04
2023-03-27T08:49:26.265Z,1516.18
2023-03-27T08:50:26.159Z,1531.84
2023-03-27T08:51:25.442Z,1537.13
2023-03-27T08:52:26.152Z,1535.36
2023-03-27T08:53:29.018Z,1538.91
2023-03-27T08:54:26.154Z,1572.44
2023-03-27T08:55:26.118Z,1580.82
2023-03-27T08:56:26.085Z,1603.60
2023-03-27T08:57:25.805Z,1620.15
2023-03-27T08:58:25.785Z,1644.09
2023-03-27T08:59:25.423Z,1634.03
2023-03-27T09:00:26.017Z,1664.59
2023-03-27T09:01:26.457Z,1672.93
2023-03-27T09:02:25.850Z,1678.19
2023-03-27T09:03:26.108Z,1717.04
2023-03-27T09:04:25.984Z,1729.28
2023-03-27T09:05:25.940Z,1750.82
2023-03-27T09:06:25.968Z,1767.04
2023-03-27T09:07:25.196Z,1804.05
2023-03-27T09:08:25.283Z,1836.31
2023-03-27T09:09:25.916Z,1873.68
2023-03-27T09:10:25.874Z,1915.35
2023-03-27T09:11:25.375Z,1969.03
2023-03-27T09:12:26.579Z,2000.00
2023-03-27T09:13:25.861Z,2047.55
2023-03-27T09:14:25.954Z,2077.82
2023-03-27T09:15:25.097Z,2099.06
2023-03-27T09:16:25.866Z,2110.67
2023-03-27T09:17:25.873Z,2109.00
2023-03-27T09:18:25.565Z,2144.58
2023-03-27T09:19:25.827Z,2124.10
2023-03-27T09:20:25.770Z,2139.42
2023-03-27T09:21:25.741Z,2167.21
2023-03-27T09:22:26.412Z,2129.19
2023-03-27T09:23:26.449Z,2107.34
2023-03-27T09:24:26.449Z,2097.41
2023-03-27T09:25:26.446Z,2087.57
2023-03-27T09:26:26.424Z,2077.82
2023-03-27T09:27:26.380Z,2063.37
2023-03-27T09:28:26.365Z,2025.80
2023-03-27T09:29:26.358Z,2024.26
2023-03-27T09:30:25.648Z,2047.55
2023-03-27T09:31:25.680Z,2035.06
2023-03-27T09:32:26.355Z,2050.69
2023-03-27T09:33:26.581Z,2085.94
2023-03-27T09:34:25.559Z,2110.67
2023-03-27T09:35:25.601Z,2124.10
2023-03-27T09:36:25.518Z,2124.10
2023-03-27T09:37:25.519Z,2153.23
2023-03-27T09:38:25.500Z,2188.52
2023-03-27T09:39:25.494Z,2223.15
2023-03-27T09:40:26.149Z,2221.30
2023-03-27T09:41:25.440Z,2202.97
2023-03-27T09:42:25.461Z,2188.52
2023-03-27T09:43:25.431Z,2195.72
2023-03-27T09:44:25.559Z,2172.50
2023-03-27T09:45:25.422Z,2163.70
2023-03-27T09:46:25.393Z,2122.42
2023-03-27T09:47:24.869Z,2117.37
2023-03-27T09:48:25.367Z,2109.00
2023-03-27T09:49:25.394Z,2119.05
2023-03-27T09:50:27.109Z,2102.36
2023-03-27T09:51:25.309Z,2074.59
2023-03-27T09:52:25.309Z,2028.88
2023-03-27T09:53:25.295Z,2012.06
2023-03-27T09:54:25.306Z,1995.52
2023-03-27T09:55:25.971Z,1953.18
2023-03-27T09:56:25.226Z,1950.33
2023-03-27T09:57:25.249Z,1943.23
2023-03-27T09:58:25.228Z,1947.48
2023-03-27T09:59:25.242Z,1937.59
2023-03-27T10:00:25.214Z,1926.41
2023-03-27T10:01:25.214Z,1913.98
2023-03-27T10:02:25.206Z,1929.19
2023-03-27T10:03:24.578Z,1919.48
2023-03-27T10:04:24.840Z,1889.60
2023-03-27T10:05:25.133Z,1861.93
2023-03-27T10:06:25.100Z,1826.27
2023-03-27T10:07:25.786Z,1842.65
2023-03-27T10:08:26.758Z,1805.27
2023-03-27T10:09:24.853Z,1772.91
2023-03-27T10:10:24.854Z,1731.52
2023-03-27T10:11:24.843Z,1741.68
2023-03-27T10:12:25.028Z,1743.96
2023-03-27T10:13:25.022Z,1746.24
2023-03-27T10:14:25.025Z,1760.05
2023-03-27T10:15:25.003Z,1777.63
2023-03-27T10:16:25.759Z,1817.56
2023-03-27T10:17:24.989Z,1818.80
2023-03-27T10:18:24.860Z,1843.92
2023-03-27T10:19:24.875Z,1890.94
2023-03-27T10:20:24.916Z,1912.61
2023-03-27T10:21:24.885Z,1916.73
2023-03-27T10:22:24.150Z,1890.94
2023-03-27T10:23:24.958Z,1878.96
2023-03-27T10:24:24.874Z,1846.47
2023-03-27T10:25:24.852Z,1800.41
2023-03-27T10:26:24.116Z,1754.27
2023-03-27T10:27:24.133Z,1720.36
2023-03-27T10:28:24.808Z,1697.39
2023-03-27T10:29:25.472Z,1704.98
2023-03-27T10:30:24.827Z,1657.36
2023-03-27T10:31:24.773Z,1622.11
2023-03-27T10:32:25.506Z,1616.22
2023-03-27T10:33:24.741Z,1597.85
2023-03-27T10:34:25.390Z,1597.85
2023-03-27T10:35:24.271Z,1580.82
2023-03-27T10:36:24.703Z,1565.06
2023-03-27T10:37:24.668Z,1550.52
2023-03-27T10:38:24.694Z,1550.52
2023-03-27T10:39:25.529Z,1546.93
2023-03-27T10:40:25.349Z,1555.94
2023-03-27T10:41:31.599Z,1558.67
2023-03-27T10:42:25.595Z,1582.69
2023-03-27T10:43:24.648Z,1591.18
2023-03-27T10:44:24.590Z,1616.22
2023-03-27T10:45:25.462Z,1605.53
2023-03-27T10:46:24.595Z,1649.17
2023-03-27T10:47:25.275Z,1657.36
2023-03-27T10:48:24.522Z,1655.30
2023-03-27T10:49:24.524Z,1699.55
2023-03-27T10:50:24.508Z,1730.40
2023-03-27T10:51:26.575Z,1742.82
2023-03-27T10:52:25.517Z,1778.81
2023-03-27T10:53:24.608Z,1778.81
2023-03-27T10:54:24.521Z,1843.92
2023-03-27T10:55:24.444Z,1881.61
2023-03-27T10:56:24.435Z,1950.33
2023-03-27T10:57:24.393Z,1920.86
2023-03-27T10:58:24.395Z,1941.82
2023-03-27T11:00:25.371Z,1970.48
2023-03-27T11:01:24.394Z,1967.58
2023-03-27T11:02:24.312Z,1991.05
2023-03-27T11:03:24.344Z,1970.48
2023-03-27T11:03:47.542Z,1939.00
2023-03-27T11:04:24.365Z,1964.68
2023-03-27T11:05:24.286Z,1964.68
2023-03-27T11:06:24.406Z,1940.41
2023-03-27T11:07:24.263Z,1916.73
2023-03-27T11:08:24.252Z,1915.35
2023-03-27T11:09:24.969Z,1915.35
2023-03-27T11:10:24.247Z,1899.00
2023-03-27T11:11:24.207Z,1922.25
2023-03-27T11:12:24.170Z,1936.19
2023-03-27T11:13:24.192Z,1944.65
2023-03-27T11:14:24.169Z,2012.06
2023-03-27T11:15:24.208Z,2038.17
2023-03-27T11:16:23.948Z,2071.37
2023-03-27T11:17:23.914Z,2060.19
2023-03-27T11:18:25.790Z,2092.48
2023-03-27T11:19:24.093Z,2092.48
2023-03-27T11:20:26.261Z,2154.96
2023-03-27T11:21:23.897Z,2156.70
2023-03-27T11:22:24.035Z,2141.14
2023-03-27T11:23:23.900Z,2119.05
2023-03-27T11:24:23.900Z,2099.06
2023-03-27T11:25:24.070Z,2081.06
2023-03-27T11:26:23.285Z,2057.01
2023-03-27T11:27:23.965Z,2024.26
2023-03-27T11:28:23.977Z,2031.96
2023-03-27T11:29:23.328Z,2039.72
2023-03-27T11:30:23.359Z,2021.20
2023-03-27T11:31:23.952Z,2027.33
2023-03-27T11:32:23.429Z,2021.20
2023-03-27T11:33:23.872Z,1991.05
2023-03-27T11:34:28.889Z,1998.50
2023-03-27T11:35:24.877Z,1979.24
2023-03-27T11:36:23.855Z,2000.00
2023-03-27T11:37:23.863Z,2021.20
2023-03-27T11:38:23.588Z,2036.61
2023-03-27T11:39:23.819Z,2057.01
2023-03-27T11:40:24.516Z,2084.31
2023-03-27T11:41:23.788Z,2066.56
2023-03-27T11:42:23.782Z,2127.49
2023-03-27T11:43:24.509Z,2127.49
2023-03-27T11:44:24.474Z,2102.36
2023-03-27T11:45:24.476Z,2110.67
2023-03-27T11:46:24.541Z,2149.76
2023-03-27T11:47:24.382Z,2158.45
2023-03-27T11:48:24.453Z,2154.96
2023-03-27T11:49:24.410Z,2184.94
2023-03-27T11:50:24.347Z,2201.15
2023-03-27T11:51:23.693Z,2165.45
2023-03-27T11:52:24.321Z,2139.42
2023-03-27T11:53:24.333Z,2104.02
2023-03-27T11:54:22.890Z,2099.06
2023-03-27T11:55:23.605Z,2099.06
2023-03-27T11:56:23.626Z,2100.71
2023-03-27T11:57:23.631Z,2077.82
2023-03-27T11:58:24.240Z,2031.96
2023-03-27T11:59:23.562Z,2025.80
2023-03-27T12:00:23.546Z,1995.52
2023-03-27T12:01:23.527Z,2028.88
2023-03-27T12:02:23.016Z,2036.61
2023-03-27T12:03:23.568Z,2041.28
2023-03-27T12:04:24.180Z,2049.12
2023-03-27T12:05:23.459Z,2084.31
2023-03-27T12:06:24.120Z,2058.60
2023-03-27T12:07:35.172Z,2061.78
2023-03-27T12:08:25.901Z,2079.44
2023-03-27T12:09:23.443Z,2104.02
2023-03-27T12:10:28.421Z,2149.76
2023-03-27T12:11:24.378Z,2158.45
2023-03-27T12:12:23.375Z,2168.97
2023-03-27T12:13:28.815Z,2193.92
2023-03-27T12:14:30.991Z,2201.15
2023-03-27T12:15:24.337Z,2193.92
2023-03-27T12:16:23.333Z,2168.97